Time;durP1;ratioP1;P1;durP2;ratioP2;P2;SDS_P1;SDS_P2;PMS_P1;PMS_P2;Temp;Humidity;BMP_temperature;BMP_pressure;BME280_temperature;BME280_humidity;BME280_pressure;Samples;Min_cycle;Max_cycle;Signal;HPM_P1;HPM_P2
2022/01/26 00:05:47;;;;;;;;;37.00;28.00;;;;;;;;6201257;23;28598;-81
2022/01/26 00:06:28;;;;;;;;;34.50;30.00;;;;;;;;6328342;22;28482;-81
2022/01/26 00:08:54;;;;;;;;;22.00;21.25;;;;;;;;6328482;22;28517;-82
2022/01/26 00:11:19;;;;;;;;;42.75;30.50;;;;;;;;6326639;22;28576;-81
2022/01/26 00:13:44;;;;;;;;;30.00;23.33;;;;;;;;6327857;22;28435;-81
2022/01/26 00:16:21;;;;;;;;;44.33;31.67;;;;;;;;6326628;22;28327;-79
2022/01/26 00:18:47;;;;;;;;;41.75;25.50;;;;;;;;6299090;22;28411;-79
2022/01/26 00:21:24;;;;;;;;;38.75;26.00;;;;;;;;6326988;22;28401;-79
2022/01/26 00:29:14;;;;;;;;;32.00;25.75;;;;;;;;6278525;22;28559;-81
2022/01/26 00:40:12;;;;;;;;;35.25;26.25;;;;;;;;6218031;22;28719;-81
2022/01/26 00:42:40;;;;;;;;;32.00;27.75;;;;;;;;6329913;22;28653;-81
2022/01/26 00:45:06;;;;;;;;;40.25;27.25;;;;;;;;6331052;22;28536;-80
2022/01/26 00:47:31;;;;;;;;;37.75;27.50;;;;;;;;6328991;22;28563;-80
2022/01/26 00:50:01;;;;;;;;;31.00;25.00;;;;;;;;6302301;22;28964;-81
2022/01/26 00:52:38;;;;;;;;;30.75;23.75;;;;;;;;6330343;22;29049;-81
2022/01/26 00:55:04;;;;;;;;;43.75;26.75;;;;;;;;6300901;22;28750;-81
2022/01/26 00:57:29;;;;;;;;;33.50;25.00;;;;;;;;6330497;22;28562;-80
2022/01/26 00:59:54;;;;;;;;;41.75;22.50;;;;;;;;6329767;22;28632;-81
2022/01/26 01:02:20;;;;;;;;;29.25;25.25;;;;;;;;6329481;22;28808;-80
2022/01/26 01:04:45;;;;;;;;;33.25;21.50;;;;;;;;6330006;22;28661;-81
2022/01/26 01:07:17;;;;;;;;;33.33;22.33;;;;;;;;6330240;22;28726;-81
2022/01/26 01:09:42;;;;;;;;;37.50;26.25;;;;;;;;6301321;22;29283;-81
2022/01/26 01:12:07;;;;;;;;;29.00;23.00;;;;;;;;6330342;22;28716;-81
2022/01/26 01:14:37;;;;;;;;;23.50;20.00;;;;;;;;6330160;22;28462;-81
2022/01/26 01:17:03;;;;;;;;;31.00;26.00;;;;;;;;6342216;22;27805;-81
2022/01/26 01:19:38;;;;;;;;;33.75;24.50;;;;;;;;6314828;22;28530;-81
2022/01/26 01:30:22;;;;;;;;;34.00;26.25;;;;;;;;6331210;22;28304;-81
2022/01/26 01:32:53;;;;;;;;;30.00;25.25;;;;;;;;6303050;22;30103;-82
2022/01/26 01:35:19;;;;;;;;;36.25;26.25;;;;;;;;6303560;22;28558;-81
2022/01/26 01:37:44;;;;;;;;;30.75;23.75;;;;;;;;6332048;22;28177;-81
2022/01/26 01:40:10;;;;;;;;;32.33;22.67;;;;;;;;6332025;22;28508;-81
2022/01/26 01:42:35;;;;;;;;;37.50;24.25;;;;;;;;6331718;22;28340;-81
2022/01/26 01:45:00;;;;;;;;;28.50;22.25;;;;;;;;6330954;22;28257;-81
2022/01/26 01:47:25;;;;;;;;;32.67;21.00;;;;;;;;6331031;22;28319;-81
2022/01/26 01:49:51;;;;;;;;;38.00;25.33;;;;;;;;6330640;22;28529;-81
2022/01/26 01:52:17;;;;;;;;;33.00;22.00;;;;;;;;6330338;22;28484;-81
2022/01/26 01:54:48;;;;;;;;;41.75;27.75;;;;;;;;6330328;22;28479;-81
2022/01/26 01:57:20;;;;;;;;;35.00;28.00;;;;;;;;6302163;22;28452;-81
2022/01/26 01:59:46;;;;;;;;;35.25;19.25;;;;;;;;6329787;22;28549;-81
2022/01/26 02:02:11;;;;;;;;;34.33;24.67;;;;;;;;6330364;22;29652;-81
2022/01/26 02:04:36;;;;;;;;;26.00;22.00;;;;;;;;6330076;22;28411;-81
2022/01/26 02:07:01;;;;;;;;;35.67;23.67;;;;;;;;6330428;22;28296;-81
2022/01/26 02:09:27;;;;;;;;;37.25;27.50;;;;;;;;6329607;22;28610;-81
2022/01/26 02:11:54;;;;;;;;;39.00;25.00;;;;;;;;6302148;22;30039;-81
2022/01/26 02:14:34;;;;;;;;;39.25;26.50;;;;;;;;6330861;22;28255;-81
2022/01/26 02:17:28;;;;;;;;;37.00;25.50;;;;;;;;6330513;22;28296;-81
2022/01/26 02:53:23;;;;;;;;;31.50;24.00;;;;;;;;6298830;22;28299;-81
2022/01/26 02:55:34;;;;;;;;;34.00;24.25;;;;;;;;6319276;22;29019;-81
2022/01/26 03:03:42;;;;;;;;;26.25;16.25;;;;;;;;6264652;22;28289;-81
2022/01/26 03:06:13;;;;;;;;;31.25;24.25;;;;;;;;6330108;22;28501;-81
2022/01/26 03:08:49;;;;;;;;;35.50;22.00;;;;;;;;6329737;22;28352;-81
2022/01/26 03:11:15;;;;;;;;;34.75;22.00;;;;;;;;6302145;22;28318;-80
2022/01/26 03:13:46;;;;;;;;;25.50;21.75;;;;;;;;6330032;22;28188;-80
2022/01/26 03:16:18;;;;;;;;;41.75;25.00;;;;;;;;6329878;22;28456;-80
2022/01/26 03:21:10;;;;;;;;;36.00;21.67;;;;;;;;6329603;22;28336;-80
2022/01/26 03:39:39;;;;;;;;;;;;;;;;;;4586901;22;243455239;-80
2022/01/26 03:42:06;;;;;;;;;37.00;26.75;;;;;;;;6325254;22;28333;-81
2022/01/26 03:44:31;;;;;;;;;35.25;28.25;;;;;;;;6329986;22;28266;-81
2022/01/26 03:46:57;;;;;;;;;30.50;27.00;;;;;;;;6329625;22;28529;-80
2022/01/26 03:49:22;;;;;;;;;29.50;24.75;;;;;;;;6329454;22;28342;-81
2022/01/26 03:51:47;;;;;;;;;36.33;25.33;;;;;;;;6329980;22;28294;-80
2022/01/26 03:54:13;;;;;;;;;36.00;28.33;;;;;;;;6329630;22;28267;-80
2022/01/26 03:56:39;;;;;;;;;33.00;24.00;;;;;;;;6329729;22;28364;-81
2022/01/26 03:59:05;;;;;;;;;30.50;27.25;;;;;;;;6329284;22;28313;-81
2022/01/26 04:01:31;;;;;;;;;35.25;28.00;;;;;;;;6329619;22;28457;-80
2022/01/26 04:03:56;;;;;;;;;43.25;34.50;;;;;;;;6329585;22;28215;-80
2022/01/26 04:06:21;;;;;;;;;52.33;29.00;;;;;;;;6332348;22;28243;-81
2022/01/26 04:08:47;;;;;;;;;40.25;27.50;;;;;;;;6332557;22;28356;-81
2022/01/26 04:14:10;;;;;;;;;41.00;30.50;;;;;;;;6304969;22;28531;-81
2022/01/26 04:16:36;;;;;;;;;50.50;29.00;;;;;;;;6332767;22;29193;-81
2022/01/26 04:19:01;;;;;;;;;51.00;37.00;;;;;;;;6332974;22;28390;-81
2022/01/26 04:21:37;;;;;;;;;48.00;32.00;;;;;;;;6333145;22;28329;-81
2022/01/26 04:24:11;;;;;;;;;51.00;31.50;;;;;;;;6332769;22;28450;-81
2022/01/26 04:26:45;;;;;;;;;45.75;29.75;;;;;;;;6333121;22;28532;-81
2022/01/26 04:29:16;;;;;;;;;44.00;25.75;;;;;;;;6304515;22;28353;-81
2022/01/26 04:31:41;;;;;;;;;48.25;36.50;;;;;;;;6333151;22;28313;-81
2022/01/26 04:34:07;;;;;;;;;56.00;33.00;;;;;;;;6332698;22;28171;-81
2022/01/26 04:36:41;;;;;;;;;45.67;34.00;;;;;;;;6332735;22;28354;-81
2022/01/26 04:39:12;;;;;;;;;42.75;30.25;;;;;;;;6332137;22;28307;-81
2022/01/26 04:44:12;;;;;;;;;44.67;33.00;;;;;;;;6329117;22;28445;-81
2022/01/26 04:46:37;;;;;;;;;51.75;37.00;;;;;;;;6333099;22;28354;-81
2022/01/26 04:49:03;;;;;;;;;48.33;38.33;;;;;;;;6332465;22;28243;-81
2022/01/26 04:51:28;;;;;;;;;44.25;36.50;;;;;;;;6304893;22;27877;-81
2022/01/26 04:53:53;;;;;;;;;46.75;35.25;;;;;;;;6332553;22;28370;-81
2022/01/26 04:56:19;;;;;;;;;57.67;40.33;;;;;;;;6304535;22;29975;-81
2022/01/26 04:58:44;;;;;;;;;47.00;34.00;;;;;;;;6332191;22;28442;-81
2022/01/26 05:01:09;;;;;;;;;43.67;28.33;;;;;;;;6332642;22;28571;-81
2022/01/26 05:03:34;;;;;;;;;47.75;36.25;;;;;;;;6332306;22;28551;-81
2022/01/26 05:05:59;;;;;;;;;56.00;36.00;;;;;;;;6332946;22;28313;-81
2022/01/26 05:08:25;;;;;;;;;49.67;39.67;;;;;;;;6331846;22;28429;-81
2022/01/26 05:10:50;;;;;;;;;57.67;38.67;;;;;;;;6304053;22;28282;-81
2022/01/26 05:13:16;;;;;;;;;42.33;32.67;;;;;;;;6304382;22;29766;-81
2022/01/26 05:15:42;;;;;;;;;45.00;36.25;;;;;;;;6332578;22;28295;-81
2022/01/26 05:18:07;;;;;;;;;50.75;31.75;;;;;;;;6330002;22;27713;-81
2022/01/26 05:20:34;;;;;;;;;59.75;36.75;;;;;;;;6301328;22;28325;-81
2022/01/26 05:22:59;;;;;;;;;48.75;39.50;;;;;;;;6329886;22;28513;-81
2022/01/26 05:25:24;;;;;;;;;49.75;37.25;;;;;;;;6330323;22;29018;-81
2022/01/26 05:27:49;;;;;;;;;61.00;36.67;;;;;;;;6330059;22;28319;-81
2022/01/26 05:30:15;;;;;;;;;55.00;37.25;;;;;;;;6330054;22;28184;-81
2022/01/26 05:32:40;;;;;;;;;49.50;34.25;;;;;;;;6330452;22;28516;-81
2022/01/26 05:35:05;;;;;;;;;56.67;39.33;;;;;;;;6330636;22;28478;-81
2022/01/26 05:37:31;;;;;;;;;46.75;38.50;;;;;;;;6330168;22;28168;-81
2022/01/26 05:39:56;;;;;;;;;61.50;41.75;;;;;;;;6330514;22;28599;-81
2022/01/26 05:45:35;;;;;;;;;13.50;5.50;;;;;;;;436570;22;130554722;-81
2022/01/26 05:48:03;;;;;;;;;62.00;36.25;;;;;;;;6329484;22;28465;-81
2022/01/26 05:50:28;;;;;;;;;52.00;39.25;;;;;;;;6299861;22;29032;-81
2022/01/26 05:52:54;;;;;;;;;57.00;40.00;;;;;;;;6329205;22;28240;-80
2022/01/26 05:55:19;;;;;;;;;55.75;37.50;;;;;;;;6329440;22;28456;-81
2022/01/26 05:57:44;;;;;;;;;56.67;39.00;;;;;;;;6302234;22;29724;-81
2022/01/26 06:00:10;;;;;;;;;61.33;40.00;;;;;;;;6330018;22;28241;-82
2022/01/26 06:02:35;;;;;;;;;58.50;42.00;;;;;;;;6330162;22;28171;-81
2022/01/26 06:05:01;;;;;;;;;45.25;37.25;;;;;;;;6329895;22;28448;-81
2022/01/26 06:07:26;;;;;;;;;47.00;38.00;;;;;;;;6330029;22;28515;-81
2022/01/26 06:09:51;;;;;;;;;61.00;42.00;;;;;;;;6301494;22;28754;-81
2022/01/26 06:12:16;;;;;;;;;61.00;39.33;;;;;;;;6301679;22;28444;-81
2022/01/26 06:14:43;;;;;;;;;59.25;40.75;;;;;;;;6301592;22;28488;-82
2022/01/26 06:17:08;;;;;;;;;58.00;40.33;;;;;;;;6302024;22;30212;-81
2022/01/26 06:19:34;;;;;;;;;61.00;38.00;;;;;;;;6302202;22;28299;-81
2022/01/26 06:21:59;;;;;;;;;58.50;41.75;;;;;;;;6329695;22;28567;-82
2022/01/26 06:24:24;;;;;;;;;60.67;38.00;;;;;;;;6329504;22;28385;-81
2022/01/26 06:26:50;;;;;;;;;61.00;40.00;;;;;;;;6301422;22;29308;-81
2022/01/26 06:29:15;;;;;;;;;60.00;44.00;;;;;;;;6328852;22;28486;-81
2022/01/26 06:31:42;;;;;;;;;49.67;39.33;;;;;;;;6329917;22;28330;-82
2022/01/26 06:34:09;;;;;;;;;51.50;38.50;;;;;;;;6329569;22;28415;-81
2022/01/26 06:36:35;;;;;;;;;55.00;39.50;;;;;;;;6330153;22;29847;-82
2022/01/26 06:39:01;;;;;;;;;52.50;38.75;;;;;;;;6301129;22;28596;-82
2022/01/26 06:41:27;;;;;;;;;59.25;39.75;;;;;;;;6330020;22;28521;-81
2022/01/26 06:44:03;;;;;;;;;64.50;40.75;;;;;;;;6329875;22;28504;-79
2022/01/26 06:46:42;;;;;;;;;61.00;40.25;;;;;;;;6329364;22;28406;-81
2022/01/26 06:51:51;;;;;;;;;59.25;39.25;;;;;;;;6328305;22;28366;-80
2022/01/26 06:54:16;;;;;;;;;60.75;42.25;;;;;;;;6328944;22;28540;-81
2022/01/26 06:56:41;;;;;;;;;64.00;45.00;;;;;;;;6329915;22;29162;-81
2022/01/26 06:59:06;;;;;;;;;57.00;42.33;;;;;;;;6329620;22;28346;-80
2022/01/26 07:01:32;;;;;;;;;56.25;43.25;;;;;;;;6329520;22;28160;-80
2022/01/26 07:03:57;;;;;;;;;49.67;38.33;;;;;;;;6301636;22;29036;-80
2022/01/26 07:06:22;;;;;;;;;62.00;42.00;;;;;;;;6328531;22;28349;-80
2022/01/26 07:08:47;;;;;;;;;62.33;38.33;;;;;;;;6329095;22;28270;-80
2022/01/26 07:11:13;;;;;;;;;63.67;44.00;;;;;;;;6329517;22;28276;-81
2022/01/26 07:13:39;;;;;;;;;57.00;35.00;;;;;;;;6329339;22;28204;-80
2022/01/26 07:21:33;;;;;;;;;67.75;43.50;;;;;;;;6328569;22;28393;-80
2022/01/26 07:23:59;;;;;;;;;58.25;46.00;;;;;;;;6328388;22;28505;-80
2022/01/26 07:26:27;;;;;;;;;61.50;43.75;;;;;;;;6329416;22;28263;-80
2022/01/26 07:28:53;;;;;;;;;60.00;41.00;;;;;;;;6329291;22;28449;-79
2022/01/26 07:31:18;;;;;;;;;62.75;42.50;;;;;;;;6328681;22;28348;-80
2022/01/26 07:33:43;;;;;;;;;62.00;42.33;;;;;;;;6328832;22;28386;-80
2022/01/26 07:36:09;;;;;;;;;64.75;42.75;;;;;;;;6329256;22;28463;-80
2022/01/26 07:38:35;;;;;;;;;62.50;46.25;;;;;;;;6298710;22;28294;-80
2022/01/26 07:41:00;;;;;;;;;59.00;42.25;;;;;;;;6329092;22;28402;-80
2022/01/26 07:43:25;;;;;;;;;71.00;47.50;;;;;;;;6329103;22;28343;-80
2022/01/26 07:45:51;;;;;;;;;66.33;44.33;;;;;;;;6301960;22;29913;-80
2022/01/26 07:48:16;;;;;;;;;61.50;42.25;;;;;;;;6327548;22;28328;-80
2022/01/26 07:50:45;;;;;;;;;65.25;45.75;;;;;;;;6300257;22;28229;-80
2022/01/26 07:53:14;;;;;;;;;61.00;42.50;;;;;;;;6301428;22;28613;-80
2022/01/26 07:58:59;;;;;;;;;;;;;;;;;;4587035;22;130556221;-81
2022/01/26 08:01:50;;;;;;;;;12.00;8.00;;;;;;;;2603853;22;110712510;-80
2022/01/26 08:04:16;;;;;;;;;68.67;47.67;;;;;;;;6322556;22;28266;-80
2022/01/26 08:06:41;;;;;;;;;60.50;43.75;;;;;;;;6299157;22;28424;-80
2022/01/26 08:09:06;;;;;;;;;53.00;39.00;;;;;;;;6326654;22;28298;-80
2022/01/26 08:11:32;;;;;;;;;61.00;42.00;;;;;;;;6327245;22;28274;-80
2022/01/26 08:13:58;;;;;;;;;66.00;42.67;;;;;;;;6326406;22;28224;-80
2022/01/26 08:16:23;;;;;;;;;59.00;41.50;;;;;;;;6300844;22;28325;-80
2022/01/26 08:18:48;;;;;;;;;59.75;39.00;;;;;;;;6300446;22;28289;-80
2022/01/26 08:21:15;;;;;;;;;62.67;41.33;;;;;;;;6326780;22;28610;-80
2022/01/26 08:23:43;;;;;;;;;58.00;37.25;;;;;;;;6299470;22;28401;-80
2022/01/26 08:26:08;;;;;;;;;49.75;36.75;;;;;;;;6300747;22;28512;-80
2022/01/26 08:28:38;;;;;;;;;54.50;33.50;;;;;;;;6299569;22;29604;-79
2022/01/26 08:31:03;;;;;;;;;46.50;27.75;;;;;;;;6327280;22;29078;-80
2022/01/26 08:33:28;;;;;;;;;58.25;37.00;;;;;;;;6328717;22;28251;-80
2022/01/26 08:35:54;;;;;;;;;58.00;40.00;;;;;;;;6328544;22;28309;-79
2022/01/26 08:38:20;;;;;;;;;64.25;42.75;;;;;;;;6298034;22;28961;-80
2022/01/26 08:40:46;;;;;;;;;55.50;40.25;;;;;;;;6301067;22;28618;-80
2022/01/26 08:43:12;;;;;;;;;50.00;31.75;;;;;;;;6300280;22;28564;-79
2022/01/26 08:45:37;;;;;;;;;46.00;30.00;;;;;;;;6329629;22;28312;-79
2022/01/26 08:48:03;;;;;;;;;48.00;39.00;;;;;;;;6328295;22;28504;-80
2022/01/26 08:50:28;;;;;;;;;57.75;37.25;;;;;;;;6299962;22;29924;-79
2022/01/26 08:52:55;;;;;;;;;17.50;8.00;;;;;;;;3;16821800;129717353;-79
2022/01/26 08:55:20;;;;;;;;;58.33;42.33;;;;;;;;6322255;22;181179;-79
2022/01/26 08:57:46;;;;;;;;;62.00;42.33;;;;;;;;6301158;22;28343;-79
2022/01/26 09:00:11;;;;;;;;;67.00;41.67;;;;;;;;6329731;22;28243;-79
2022/01/26 09:02:37;;;;;;;;;62.50;37.75;;;;;;;;6328460;22;28460;-79
2022/01/26 09:05:04;;;;;;;;;62.75;42.75;;;;;;;;6301668;22;28359;-79
2022/01/26 09:07:30;;;;;;;;;60.75;41.75;;;;;;;;6329906;22;28262;-80
2022/01/26 09:09:59;;;;;;;;;58.00;41.75;;;;;;;;6328080;22;28223;-79
2022/01/26 09:12:25;;;;;;;;;60.50;43.00;;;;;;;;6329007;22;28540;-79
2022/01/26 09:14:51;;;;;;;;;69.25;42.75;;;;;;;;6330477;22;28487;-79
2022/01/26 09:17:17;;;;;;;;;48.75;41.25;;;;;;;;6330359;22;28370;-79
2022/01/26 09:19:44;;;;;;;;;59.33;43.00;;;;;;;;6299668;22;28385;-80
2022/01/26 09:22:12;;;;;;;;;58.50;38.00;;;;;;;;6327334;22;28275;-79
2022/01/26 09:24:38;;;;;;;;;61.25;42.00;;;;;;;;6328181;22;28627;-79
2022/01/26 09:27:04;;;;;;;;;63.00;42.50;;;;;;;;6330932;22;28338;-80
2022/01/26 09:29:29;;;;;;;;;64.75;43.25;;;;;;;;6329798;22;28393;-79
2022/01/26 09:31:54;;;;;;;;;57.75;43.00;;;;;;;;6301453;22;28406;-79
2022/01/26 09:34:21;;;;;;;;;67.67;43.33;;;;;;;;6329862;22;28493;-79
2022/01/26 09:36:47;;;;;;;;;65.75;40.00;;;;;;;;6329954;22;28393;-79
2022/01/26 09:39:13;;;;;;;;;62.75;49.25;;;;;;;;6330349;22;28274;-79
2022/01/26 09:41:39;;;;;;;;;65.25;45.00;;;;;;;;6330687;22;28213;-79
2022/01/26 09:44:05;;;;;;;;;61.00;42.50;;;;;;;;6301056;22;29961;-79
2022/01/26 09:46:30;;;;;;;;;64.00;45.00;;;;;;;;6301299;22;28341;-79
2022/01/26 09:48:55;;;;;;;;;68.67;45.00;;;;;;;;6329178;22;28586;-80
2022/01/26 09:51:21;;;;;;;;;64.75;46.25;;;;;;;;6328826;22;28548;-79
2022/01/26 09:53:57;;;;;;;;;62.50;44.75;;;;;;;;6328858;22;28491;-79
2022/01/26 09:56:23;;;;;;;;;57.25;41.75;;;;;;;;6301561;22;28422;-79
2022/01/26 09:58:50;;;;;;;;;62.67;46.00;;;;;;;;6328705;22;28334;-79
2022/01/26 10:01:15;;;;;;;;;58.50;44.50;;;;;;;;6329119;22;28362;-79
2022/01/26 10:03:43;;;;;;;;;58.33;40.67;;;;;;;;6329174;22;29535;-79
2022/01/26 10:06:17;;;;;;;;;60.00;41.25;;;;;;;;6302157;22;28456;-79
2022/01/26 10:19:24;;;;;;;;;60.00;42.25;;;;;;;;6313520;22;28337;-80
2022/01/26 10:21:51;;;;;;;;;60.67;41.67;;;;;;;;6302306;22;28395;-79
2022/01/26 10:24:18;;;;;;;;;61.25;42.75;;;;;;;;6330026;22;28527;-79
2022/01/26 10:26:48;;;;;;;;;67.50;44.25;;;;;;;;6302214;22;29260;-79
2022/01/26 10:29:15;;;;;;;;;64.50;41.25;;;;;;;;6330256;22;28318;-79
2022/01/26 10:31:41;;;;;;;;;60.25;42.00;;;;;;;;6329955;22;28473;-79
2022/01/26 10:34:11;;;;;;;;;54.00;35.50;;;;;;;;6329260;22;29100;-79
2022/01/26 10:36:38;;;;;;;;;63.50;42.25;;;;;;;;6329567;22;28271;-79
2022/01/26 10:39:06;;;;;;;;;60.50;43.00;;;;;;;;6301417;22;28204;-79
2022/01/26 10:41:31;;;;;;;;;58.00;37.25;;;;;;;;6329940;22;28270;-79
2022/01/26 10:43:59;;;;;;;;;59.33;42.00;;;;;;;;6329271;22;28336;-79
2022/01/26 10:46:32;;;;;;;;;55.50;38.50;;;;;;;;6328660;22;28271;-79
2022/01/26 10:51:55;;;;;;;;;61.75;43.50;;;;;;;;6269982;22;28431;-79
2022/01/26 10:54:36;;;;;;;;;49.25;38.50;;;;;;;;6301764;22;30624;-79
2022/01/26 10:57:02;;;;;;;;;57.00;42.00;;;;;;;;6329703;22;28127;-79
2022/01/26 10:59:27;;;;;;;;;61.50;41.25;;;;;;;;6328994;22;28480;-82
2022/01/26 11:01:53;;;;;;;;;57.33;38.33;;;;;;;;6330224;22;28441;-81
2022/01/26 11:04:19;;;;;;;;;56.25;39.25;;;;;;;;6301497;22;29614;-81
2022/01/26 11:06:50;;;;;;;;;54.50;39.50;;;;;;;;6329494;22;27786;-81
2022/01/26 11:09:18;;;;;;;;;61.00;41.75;;;;;;;;6300654;22;28208;-81
2022/01/26 11:11:43;;;;;;;;;56.00;38.75;;;;;;;;6328714;22;28405;-82
2022/01/26 11:14:16;;;;;;;;;51.25;40.25;;;;;;;;6330021;22;28566;-81
2022/01/26 11:16:53;;;;;;;;;55.00;40.75;;;;;;;;6328633;22;28373;-82
2022/01/26 11:19:18;;;;;;;;;61.25;42.25;;;;;;;;6329847;22;28323;-82
2022/01/26 11:21:44;;;;;;;;;66.33;40.67;;;;;;;;6330521;22;28391;-82
2022/01/26 11:24:20;;;;;;;;;59.00;41.25;;;;;;;;6329430;22;29085;-81
2022/01/26 11:26:47;;;;;;;;;62.50;42.00;;;;;;;;6328586;22;28428;-81
2022/01/26 11:29:23;;;;;;;;;50.00;37.75;;;;;;;;6329013;22;28286;-80
2022/01/26 11:31:59;;;;;;;;;54.25;41.25;;;;;;;;6329363;22;28286;-81
2022/01/26 11:34:27;;;;;;;;;62.00;41.25;;;;;;;;6329161;22;29640;-82
2022/01/26 11:36:52;;;;;;;;;57.75;39.00;;;;;;;;6300797;22;28469;-81
2022/01/26 11:42:21;;;;;;;;;56.75;42.25;;;;;;;;6329838;22;28458;-83
2022/01/26 11:45:05;;;;;;;;;67.25;44.00;;;;;;;;6329524;22;28436;-82
2022/01/26 11:47:32;;;;;;;;;68.25;42.50;;;;;;;;6329586;22;28169;-82
2022/01/26 11:50:08;;;;;;;;;64.50;41.75;;;;;;;;6329663;22;28568;-82
2022/01/26 11:52:35;;;;;;;;;49.75;37.00;;;;;;;;6331165;22;28393;-83
2022/01/26 11:55:03;;;;;;;;;58.50;38.00;;;;;;;;6329840;22;28606;-82
2022/01/26 11:57:49;;;;;;;;;47.50;32.50;;;;;;;;6329678;22;28340;-83
2022/01/26 12:00:22;;;;;;;;;45.00;33.75;;;;;;;;6331131;22;28206;-82
2022/01/26 12:05:15;;;;;;;;;52.75;38.00;;;;;;;;6331506;22;28249;-81
2022/01/26 12:07:51;;;;;;;;;43.50;30.50;;;;;;;;6327699;22;28649;-83
2022/01/26 12:10:29;;;;;;;;;45.00;33.25;;;;;;;;6328335;22;28203;-80
2022/01/26 12:13:01;;;;;;;;;53.75;35.50;;;;;;;;6329175;22;28481;-81
2022/01/26 12:15:28;;;;;;;;;37.25;30.00;;;;;;;;6329030;22;28193;-79
2022/01/26 12:18:12;;;;;;;;;40.75;28.00;;;;;;;;6327987;22;28338;-79
2022/01/26 12:34:34;;;;;;;;;41.25;34.50;;;;;;;;6330796;22;28345;-77
2022/01/26 12:41:16;;;;;;;;;57.00;38.00;;;;;;;;6330557;22;28303;-77
2022/01/26 12:42:10;;;;;;;;;54.50;39.25;;;;;;;;6328352;22;28460;-77
2022/01/26 12:44:35;;;;;;;;;59.25;40.50;;;;;;;;6302212;22;28703;-77
2022/01/26 12:47:00;;;;;;;;;60.00;36.67;;;;;;;;6301425;22;30044;-78
2022/01/26 12:49:26;;;;;;;;;58.75;44.75;;;;;;;;6330147;22;28431;-78
2022/01/26 12:51:52;;;;;;;;;60.00;43.00;;;;;;;;6330554;22;28428;-77
2022/01/26 12:54:18;;;;;;;;;46.50;30.75;;;;;;;;6329842;22;27750;-78
2022/01/26 12:56:43;;;;;;;;;57.75;40.00;;;;;;;;6302523;22;30063;-77
2022/01/26 12:59:13;;;;;;;;;58.50;40.25;;;;;;;;6330207;22;28430;-78
2022/01/26 13:01:39;;;;;;;;;51.50;37.00;;;;;;;;6328979;22;28463;-78
2022/01/26 13:04:05;;;;;;;;;50.25;37.50;;;;;;;;6329937;22;28732;-78
2022/01/26 13:06:34;;;;;;;;;57.50;38.75;;;;;;;;6330633;22;28428;-78
2022/01/26 13:09:00;;;;;;;;;61.25;41.00;;;;;;;;6301520;22;28193;-78
2022/01/26 13:11:33;;;;;;;;;63.00;40.50;;;;;;;;6330706;22;28220;-79
2022/01/26 13:14:20;;;;;;;;;54.50;41.75;;;;;;;;6331906;22;28320;-78
2022/01/26 13:17:01;;;;;;;;;59.25;39.50;;;;;;;;6302767;22;29611;-78
2022/01/26 13:19:44;;;;;;;;;64.75;42.75;;;;;;;;6304411;22;28983;-78
2022/01/26 13:22:35;;;;;;;;;63.00;44.00;;;;;;;;6304587;22;28431;-78
2022/01/26 13:27:48;;;;;;;;;61.50;44.00;;;;;;;;6331587;22;28421;-79
2022/01/26 13:30:28;;;;;;;;;63.25;43.75;;;;;;;;6331062;22;28365;-78
2022/01/26 13:34:04;;;;;;;;;66.00;47.00;;;;;;;;6329283;22;28296;-78
2022/01/26 13:52:03;;;;;;;;;61.25;44.50;;;;;;;;6329748;22;28188;-78
2022/01/26 13:57:41;;;;;;;;;59.75;44.25;;;;;;;;6329536;22;28475;-78
2022/01/26 14:00:00;;;;;;;;;63.00;40.50;;;;;;;;6328678;22;28427;-78
2022/01/26 14:02:30;;;;;;;;;56.50;41.25;;;;;;;;6328958;22;28342;-78
2022/01/26 14:04:55;;;;;;;;;63.50;43.00;;;;;;;;6327146;22;28374;-80
2022/01/26 14:07:20;;;;;;;;;48.67;40.33;;;;;;;;6326763;22;28315;-77
2022/01/26 14:09:45;;;;;;;;;59.33;43.33;;;;;;;;6327268;22;29634;-79
2022/01/26 14:12:14;;;;;;;;;56.00;44.00;;;;;;;;6328091;22;28287;-78
2022/01/26 14:14:43;;;;;;;;;60.25;40.00;;;;;;;;6329319;22;28383;-79
2022/01/26 14:17:16;;;;;;;;;61.50;43.50;;;;;;;;6299981;22;28567;-79
2022/01/26 14:22:33;;;;;;;;;59.00;39.00;;;;;;;;6330729;22;28322;-79
2022/01/26 14:25:17;;;;;;;;;56.25;41.25;;;;;;;;6302008;22;28411;-80
2022/01/26 14:27:47;;;;;;;;;58.00;41.75;;;;;;;;6301868;22;28375;-80
2022/01/26 15:35:20;;;;;;;;;47.75;35.25;;;;;;;;6329609;22;28343;-80
2022/01/26 15:40:45;;;;;;;;;50.75;35.75;;;;;;;;6327991;22;28535;-80
2022/01/26 16:06:25;;;;;;;;;60.50;40.50;;;;;;;;6328308;22;28694;-79
2022/01/26 17:11:06;;;;;;;;;47.75;39.00;;;;;;;;6328605;22;28282;-80
2022/01/26 17:46:40;;;;;;;;;62.75;41.00;;;;;;;;6330164;22;28408;-80
2022/01/26 18:31:43;;;;;;;;;58.50;42.50;;;;;;;;6329286;22;28389;-81
2022/01/26 18:32:18;;;;;;;;;56.25;42.00;;;;;;;;6328860;22;28809;-80
2022/01/26 18:51:07;;;;;;;;;59.00;46.50;;;;;;;;6329179;22;28342;-81
2022/01/26 18:53:32;;;;;;;;;76.33;47.33;;;;;;;;6300732;22;28711;-80
2022/01/26 18:55:57;;;;;;;;;66.00;46.00;;;;;;;;6329378;22;28457;-81
2022/01/26 18:58:23;;;;;;;;;63.25;39.00;;;;;;;;6329211;22;28188;-80
2022/01/26 19:00:48;;;;;;;;;62.75;47.00;;;;;;;;6300832;22;28691;-81
2022/01/26 19:03:14;;;;;;;;;60.50;44.50;;;;;;;;6300980;22;29310;-84
2022/01/26 19:05:40;;;;;;;;;59.75;45.00;;;;;;;;6329056;22;28453;-81
2022/01/26 19:08:08;;;;;;;;;71.25;49.75;;;;;;;;6300587;22;29447;-83
2022/01/26 19:10:34;;;;;;;;;64.25;45.50;;;;;;;;6328780;22;28562;-83
2022/01/26 19:12:59;;;;;;;;;69.00;48.25;;;;;;;;6329648;22;28236;-84
2022/01/26 19:15:29;;;;;;;;;64.67;43.33;;;;;;;;6300137;22;28343;-83
2022/01/26 19:18:00;;;;;;;;;74.75;44.75;;;;;;;;6301813;22;28488;-84
2022/01/26 19:25:23;;;;;;;;;68.00;43.00;;;;;;;;6343253;22;27727;-86
2022/01/26 19:33:19;;;;;;;;;65.75;45.50;;;;;;;;6328891;22;28618;-82
2022/01/26 19:44:07;;;;;;;;;69.50;47.75;;;;;;;;6330245;22;28247;-84
2022/01/26 19:46:34;;;;;;;;;72.75;50.25;;;;;;;;6328404;22;28460;-84
2022/01/26 19:54:28;;;;;;;;;66.25;50.75;;;;;;;;6328155;22;28510;-83
2022/01/26 19:56:53;;;;;;;;;66.00;48.25;;;;;;;;6299984;22;28386;-81
2022/01/26 19:59:18;;;;;;;;;73.50;51.50;;;;;;;;6298349;22;28487;-82
2022/01/26 20:01:43;;;;;;;;;65.67;45.33;;;;;;;;6297907;22;29953;-82
2022/01/26 20:04:09;;;;;;;;;57.67;41.00;;;;;;;;6300132;22;28290;-82
2022/01/26 20:06:35;;;;;;;;;69.75;50.75;;;;;;;;6300413;22;28466;-82
2022/01/26 20:09:45;;;;;;;;;71.00;49.25;;;;;;;;6328650;22;28318;-82
2022/01/26 20:11:59;;;;;;;;;71.00;50.75;;;;;;;;6314189;22;28853;-82
2022/01/26 20:14:32;;;;;;;;;64.00;46.00;;;;;;;;6327795;22;28362;-82
2022/01/26 20:16:57;;;;;;;;;71.50;48.25;;;;;;;;6300173;22;28401;-82
2022/01/26 20:19:22;;;;;;;;;70.75;48.00;;;;;;;;6327373;22;27865;-83
2022/01/26 20:21:48;;;;;;;;;68.00;50.00;;;;;;;;6300646;22;29932;-82
2022/01/26 20:24:16;;;;;;;;;67.00;49.67;;;;;;;;6328168;22;28235;-82
2022/01/26 20:26:42;;;;;;;;;72.75;51.25;;;;;;;;6328647;22;28509;-82
2022/01/26 20:29:07;;;;;;;;;71.25;46.25;;;;;;;;6300209;22;28537;-82
2022/01/26 20:31:32;;;;;;;;;70.33;51.67;;;;;;;;6328082;22;28414;-83
2022/01/26 20:33:58;;;;;;;;;63.00;43.00;;;;;;;;6328756;22;28457;-82
2022/01/26 20:36:28;;;;;;;;;66.50;47.25;;;;;;;;6327292;22;28448;-83
2022/01/26 20:38:54;;;;;;;;;68.25;46.75;;;;;;;;6327354;22;28393;-84
2022/01/26 20:41:19;;;;;;;;;66.50;45.50;;;;;;;;6328745;22;28313;-82
2022/01/26 20:43:44;;;;;;;;;57.33;43.67;;;;;;;;6328257;22;28401;-82
2022/01/26 20:46:09;;;;;;;;;62.50;48.25;;;;;;;;6328034;22;28429;-82
2022/01/26 20:48:35;;;;;;;;;66.00;47.50;;;;;;;;6325641;22;28386;-82
2022/01/26 20:51:01;;;;;;;;;62.00;47.50;;;;;;;;6330084;22;28425;-81
2022/01/26 20:53:26;;;;;;;;;67.75;46.50;;;;;;;;6330232;22;28761;-82
2022/01/26 20:55:51;;;;;;;;;60.00;44.00;;;;;;;;6330443;22;28310;-82
2022/01/26 20:58:17;;;;;;;;;62.00;43.00;;;;;;;;6328721;22;28382;-82
2022/01/26 21:00:42;;;;;;;;;60.33;38.33;;;;;;;;6329502;22;28334;-82
2022/01/26 21:03:09;;;;;;;;;58.00;43.00;;;;;;;;6329756;22;28261;-81
2022/01/26 21:05:34;;;;;;;;;67.25;45.50;;;;;;;;6330753;22;28271;-82
2022/01/26 21:08:00;;;;;;;;;61.33;41.67;;;;;;;;6329772;22;28276;-82
2022/01/26 21:10:25;;;;;;;;;63.50;44.25;;;;;;;;6329691;22;28948;-83
2022/01/26 21:12:51;;;;;;;;;63.50;42.50;;;;;;;;6301402;22;28630;-83
2022/01/26 21:15:17;;;;;;;;;57.25;39.50;;;;;;;;6330407;22;28236;-82
2022/01/26 21:17:43;;;;;;;;;64.75;44.25;;;;;;;;6329601;22;28350;-82
2022/01/26 21:20:12;;;;;;;;;50.50;40.50;;;;;;;;6329238;22;29088;-84
2022/01/26 21:22:37;;;;;;;;;62.50;43.50;;;;;;;;6329127;22;28757;-83
2022/01/26 21:25:03;;;;;;;;;65.50;44.50;;;;;;;;6300690;22;28465;-83
2022/01/26 21:27:29;;;;;;;;;65.50;41.00;;;;;;;;6328340;22;28323;-82
2022/01/26 21:29:54;;;;;;;;;63.33;44.00;;;;;;;;6326800;22;28829;-84